Time;durP1;ratioP1;P1;durP2;ratioP2;P2;SDS_P1;SDS_P2;PMS_P1;PMS_P2;Temp;Humidity;BMP_temperature;BMP_pressure;BME280_temperature;BME280_humidity;BME280_pressure;Samples;Min_cycle;Max_cycle;Signal;HPM_P1;HPM_P2
2023/03/23 00:02:38;;;;;;;8.93;3.40;;;;;;;10.20;77.35;99289.22;10158368;29;20500;-82
2023/03/23 00:07:45;;;;;;;7.33;3.67;;;;;;;10.14;77.58;99280.75;10208559;29;20083;-82
2023/03/23 00:12:49;;;;;;;8.43;3.67;;;;;;;10.14;78.15;99275.38;10163089;29;20036;-82
2023/03/23 00:17:51;;;;;;;8.23;3.53;;;;;;;10.15;78.99;99289.69;10201302;29;20048;-81
2023/03/23 00:22:52;;;;;;;8.73;3.80;;;;;;;9.98;80.60;99279.72;10186995;29;20051;-80
2023/03/23 00:27:56;;;;;;;7.10;4.20;;;;;;;9.69;81.73;99270.75;10171568;29;20044;-82
2023/03/23 00:32:58;;;;;;;6.88;3.47;;;;;;;10.28;79.56;99259.78;10174240;29;20047;-83
2023/03/23 00:37:59;;;;;;;6.17;3.80;;;;;;;9.85;80.61;99248.69;10176109;29;20044;-82
2023/03/23 00:43:04;;;;;;;4.70;3.17;;;;;;;10.04;79.87;99263.88;10183146;29;20058;-83
2023/03/23 00:48:06;;;;;;;5.93;3.95;;;;;;;9.80;81.59;99250.94;10167194;29;20290;-83
2023/03/23 00:53:08;;;;;;;6.10;3.17;;;;;;;9.60;82.64;99247.50;10184931;29;20036;-80
2023/03/23 00:58:12;;;;;;;8.10;4.40;;;;;;;9.57;83.13;99241.56;10145976;29;20055;-80
2023/03/23 01:03:17;;;;;;;7.50;4.18;;;;;;;9.69;82.51;99232.38;10180609;29;20051;-82
2023/03/23 01:08:21;;;;;;;6.60;3.92;;;;;;;9.54;82.83;99239.19;10137675;29;20068;-79
2023/03/23 01:13:24;;;;;;;7.78;3.75;;;;;;;9.96;80.85;99236.94;10172191;29;20098;-80
2023/03/23 01:18:26;;;;;;;6.22;3.53;;;;;;;10.22;79.54;99223.66;10175607;29;20492;-79
2023/03/23 01:23:28;;;;;;;6.32;3.47;;;;;;;10.31;79.48;99213.84;10148760;29;20385;-77
2023/03/23 01:28:31;;;;;;;5.47;3.20;;;;;;;10.05;79.15;99209.22;10186203;29;20047;-81
2023/03/23 01:33:33;;;;;;;5.70;2.17;;;;;;;10.12;77.79;99231.78;10186641;29;20087;-80
2023/03/23 01:38:35;;;;;;;6.60;3.20;;;;;;;10.31;78.00;99206.69;10146992;29;20046;-79
2023/03/23 01:43:58;;;;;;;4.72;3.00;;;;;;;10.28;77.78;99211.47;10182165;29;20044;-79
2023/03/23 01:49:08;;;;;;;7.05;2.95;;;;;;;10.27;76.89;99233.97;10185597;29;20669;-78
2023/03/23 01:54:18;;;;;;;3.53;2.97;;;;;;;10.30;76.82;99218.38;10168970;29;20507;-81
2023/03/23 01:59:25;;;;;;;3.75;2.58;;;;;;;10.23;76.59;99193.16;10167266;29;20042;-79
2023/03/23 02:04:41;;;;;;;3.83;2.20;;;;;;;10.24;76.93;99192.16;10175485;29;20432;-80
2023/03/23 02:09:43;;;;;;;;;;;;;;;10.52;75.39;99200.16;10151632;29;20099;-79
2023/03/23 02:14:46;;;;;;;5.43;2.47;;;;;;;10.28;75.77;99195.38;10173221;29;20001;-79
2023/03/23 02:20:07;;;;;;;7.15;2.67;;;;;;;10.59;75.01;99199.41;10150745;29;20040;-76
2023/03/23 02:25:32;;;;;;;5.15;2.60;;;;;;;10.72;74.56;99179.34;10161146;29;20107;-79
2023/03/23 02:30:48;;;;;;;5.05;2.70;;;;;;;10.47;74.39;99189.88;10166675;29;20067;-82
2023/03/23 02:35:55;;;;;;;3.35;2.70;;;;;;;10.53;73.98;99196.47;10172168;29;20041;-82
2023/03/23 02:41:01;;;;;;;5.38;2.75;;;;;;;10.72;73.45;99199.00;10163891;29;20150;-79
2023/03/23 02:46:07;;;;;;;6.55;3.13;;;;;;;10.67;74.69;99179.84;10161655;29;20076;-80
2023/03/23 02:51:12;;;;;;;3.45;2.40;;;;;;;10.25;76.63;99153.59;10179413;29;20060;-78
2023/03/23 02:56:15;;;;;;;5.57;2.60;;;;;;;10.54;75.91;99136.44;10185995;29;20084;-78
2023/03/23 03:01:51;;;;;;;3.50;2.65;;;;;;;10.42;75.45;99137.63;10159552;29;20131;-82
2023/03/23 03:07:18;;;;;;;4.05;2.10;;;;;;;10.47;74.17;99149.59;10166308;29;20055;-81
2023/03/23 03:12:30;;;;;;;3.78;2.35;;;;;;;10.55;73.79;99133.56;10184482;29;20037;-83
2023/03/23 03:17:36;;;;;;;;;;;;;;;10.43;73.53;99140.19;10190889;29;20044;-79
2023/03/23 03:22:42;;;;;;;4.82;2.10;;;;;;;10.37;73.85;99141.63;10181602;29;19964;-80
2023/03/23 03:27:49;;;;;;;3.42;1.83;;;;;;;10.47;72.53;99144.22;10149961;29;20058;-82
2023/03/23 03:33:00;;;;;;;2.03;1.73;;;;;;;10.21;72.93;99132.59;10167581;29;20036;-80
2023/03/23 03:38:08;;;;;;;2.35;1.80;;;;;;;10.44;72.82;99117.69;10154849;29;20099;-80
2023/03/23 03:43:10;;;;;;;1.95;1.33;;;;;;;10.30;72.89;99113.72;10188236;29;20039;-83
2023/03/23 03:48:12;;;;;;;5.03;1.83;;;;;;;10.04;74.32;99107.41;10184569;29;20497;-79
2023/03/23 03:53:16;;;;;;;4.05;2.08;;;;;;;10.25;74.04;99086.50;10164601;29;20056;-80
2023/03/23 03:58:19;;;;;;;3.95;1.98;;;;;;;10.64;72.34;99094.22;10151766;29;20040;-81
2023/03/23 04:03:39;;;;;;;2.85;2.10;;;;;;;10.55;72.43;99103.19;10172729;29;20079;-82
2023/03/23 04:08:50;;;;;;;5.43;1.60;;;;;;;10.37;72.92;99105.91;10153108;29;20045;-81
2023/03/23 04:13:52;;;;;;;2.67;1.25;;;;;;;10.23;73.47;99096.56;10172280;23;20052;-77
2023/03/23 04:18:57;;;;;;;4.07;2.10;;;;;;;10.59;72.56;99108.09;10123991;29;20514;-76
2023/03/23 04:24:02;;;;;;;2.92;1.70;;;;;;;10.43;73.21;99107.13;10119634;29;20643;-77
2023/03/23 04:29:05;;;;;;;1.63;1.33;;;;;;;10.32;72.73;99113.56;10111570;29;20051;-76
2023/03/23 04:34:13;;;;;;;3.38;1.75;;;;;;;10.73;71.19;99100.50;10131804;29;20062;-76
2023/03/23 04:39:20;;;;;;;2.30;1.48;;;;;;;10.67;71.44;99115.41;10123337;29;20048;-76
2023/03/23 04:44:22;;;;;;;2.55;1.50;;;;;;;10.51;71.65;99113.41;10125361;29;20049;-76
2023/03/23 04:49:37;;;;;;;2.65;1.50;;;;;;;10.63;71.53;99131.97;10116966;29;20613;-76
2023/03/23 04:54:56;;;;;;;4.13;2.10;;;;;;;10.77;70.94;99120.66;10123098;29;20574;-76
2023/03/23 04:59:58;;;;;;;1.90;1.27;;;;;;;10.52;71.19;99119.63;10131107;29;20500;-77
2023/03/23 05:05:14;;;;;;;1.70;1.30;;;;;;;10.53;71.19;99129.34;10129603;29;20172;-77
2023/03/23 05:10:19;;;;;;;2.13;1.70;;;;;;;10.49;71.20;99127.97;10123348;29;20135;-76
2023/03/23 05:15:22;;;;;;;1.50;1.20;;;;;;;10.66;70.62;99128.97;10118789;29;20452;-76
2023/03/23 05:20:24;;;;;;;1.40;1.30;;;;;;;10.87;69.87;99123.25;10121341;29;20139;-77
2023/03/23 05:25:36;;;;;;;1.55;1.27;;;;;;;10.57;70.50;99120.00;10122947;29;20079;-77
2023/03/23 05:30:44;;;;;;;1.52;1.40;;;;;;;10.78;69.63;99115.13;10136952;29;20052;-77
2023/03/23 05:35:48;;;;;;;1.95;1.25;;;;;;;10.75;69.62;99120.81;10142601;29;20091;-77
2023/03/23 05:40:54;;;;;;;2.67;1.45;;;;;;;10.94;68.79;99108.19;10147168;29;20044;-76
2023/03/23 05:46:03;;;;;;;3.72;1.40;;;;;;;10.75;69.33;99104.72;10128796;29;20128;-77
2023/03/23 05:51:07;;;;;;;2.17;1.45;;;;;;;10.88;69.17;99090.84;10122654;29;20060;-76
2023/03/23 05:56:15;;;;;;;2.47;1.27;;;;;;;10.69;69.54;99109.84;10131929;29;20156;-76
2023/03/23 06:01:36;;;;;;;1.55;1.23;;;;;;;10.66;69.82;99118.22;10142956;29;20044;-77
2023/03/23 06:06:38;;;;;;;4.07;1.33;;;;;;;10.66;70.30;99119.06;10131352;29;20456;-76
2023/03/23 06:11:47;;;;;;;2.78;1.38;;;;;;;10.73;70.14;99119.28;10120592;29;20293;-76
2023/03/23 06:17:12;;;;;;;3.60;2.00;;;;;;;11.01;69.09;99128.06;10122594;29;20055;-77
2023/03/23 06:22:15;;;;;;;3.92;1.38;;;;;;;10.80;69.75;99137.28;10130774;29;20080;-76
2023/03/23 06:27:38;;;;;;;;;;;;;;;11.01;69.43;99133.44;10141401;29;20567;-75
2023/03/23 06:32:40;;;;;;;;;;;;;;;10.81;69.54;99140.84;10119294;29;19931;-77
2023/03/23 06:37:46;;;;;;;3.08;1.40;;;;;;;10.91;69.58;99152.31;10128477;29;20010;-77
2023/03/23 06:42:59;;;;;;;2.38;1.55;;;;;;;10.93;69.68;99157.53;10139244;29;20127;-77
2023/03/23 06:48:21;;;;;;;2.03;1.20;;;;;;;10.77;70.14;99142.13;10152471;29;20597;-77
2023/03/23 06:53:24;;;;;;;3.03;1.67;;;;;;;11.09;69.27;99152.28;10134720;29;20049;-77
2023/03/23 06:58:30;;;;;;;4.63;1.45;;;;;;;11.20;68.66;99151.22;10126836;29;20083;-76
2023/03/23 07:03:33;;;;;;;2.38;1.52;;;;;;;11.10;69.01;99161.19;10129614;29;20048;-77
2023/03/23 07:08:36;;;;;;;2.88;1.77;;;;;;;11.57;67.28;99164.34;10115864;29;20045;-76
2023/03/23 07:13:41;;;;;;;3.55;1.67;;;;;;;11.30;67.78;99156.47;10133269;29;20500;-77
2023/03/23 07:18:45;;;;;;;4.53;2.90;;;;;;;11.44;68.15;99161.28;10134431;29;20045;-76
2023/03/23 07:23:47;;;;;;;2.63;1.40;;;;;;;11.30;67.77;99162.72;10119209;29;20067;-76
2023/03/23 07:28:57;;;;;;;2.35;1.60;;;;;;;11.42;68.09;99148.00;10124631;29;20055;-77
2023/03/23 07:34:06;;;;;;;2.15;1.50;;;;;;;11.81;66.65;99158.25;10136149;29;20048;-77
2023/03/23 07:39:26;;;;;;;2.13;1.40;;;;;;;11.53;66.75;99164.84;10140107;29;20085;-76
2023/03/23 07:44:32;;;;;;;3.47;1.88;;;;;;;11.60;67.14;99166.75;10130505;29;20044;-76
2023/03/23 07:49:41;;;;;;;7.15;1.75;;;;;;;11.22;67.59;99206.50;10140124;29;20406;-77
2023/03/23 07:54:56;;;;;;;3.03;1.58;;;;;;;11.68;66.94;99172.16;10125971;29;20051;-76
2023/03/23 08:00:15;;;;;;;6.75;1.92;;;;;;;11.82;66.52;99181.47;10129386;29;20044;-76
2023/03/23 08:05:18;;;;;;;2.78;2.13;;;;;;;11.61;67.26;99173.81;10132884;29;20513;-77
2023/03/23 08:10:38;;;;;;;6.20;1.65;;;;;;;11.54;67.32;99199.63;10126807;29;20079;-76
2023/03/23 08:16:09;;;;;;;3.22;2.20;;;;;;;11.34;69.17;99190.13;10123187;29;20067;-77
2023/03/23 08:21:43;;;;;;;4.53;2.20;;;;;;;11.75;68.07;99180.41;10125795;29;20043;-76
2023/03/23 08:27:12;;;;;;;5.25;2.35;;;;;;;11.52;68.75;99180.16;10121218;29;20054;-77
2023/03/23 08:32:18;;;;;;;3.95;2.08;;;;;;;11.44;69.56;99223.97;10132083;29;20108;-77
2023/03/23 08:37:42;;;;;;;4.00;1.98;;;;;;;11.54;68.23;99185.34;10086788;29;20052;-77
2023/03/23 08:42:55;;;;;;;3.95;1.30;;;;;;;11.41;67.80;99193.84;10093063;29;20051;-77
2023/03/23 08:48:17;;;;;;;8.13;2.35;;;;;;;12.13;65.42;99186.28;10091449;29;20056;-77
2023/03/23 08:53:40;;;;;;;6.28;2.28;;;;;;;11.93;65.07;99191.94;10072358;29;21148;-77
2023/03/23 08:59:01;;;;;;;2.67;1.90;;;;;;;12.39;64.17;99178.13;10099940;29;21214;-77
2023/03/23 09:04:31;;;;;;;6.18;1.92;;;;;;;11.91;64.46;99196.63;10113960;29;20123;-77
2023/03/23 09:09:48;;;;;;;5.60;2.20;;;;;;;11.90;64.79;99212.94;10096760;29;20049;-77
2023/03/23 09:14:50;;;;;;;2.72;1.60;;;;;;;11.82;63.99;99208.38;10121542;29;20068;-77
2023/03/23 09:19:54;;;;;;;4.35;1.60;;;;;;;12.08;63.74;99212.84;10136342;29;20052;-77
2023/03/23 09:24:55;;;;;;;6.78;1.70;;;;;;;12.34;62.58;99213.66;10108142;29;20103;-77
2023/03/23 09:29:58;;;;;;;5.57;1.73;;;;;;;12.45;62.23;99222.41;10102353;29;20056;-77
2023/03/23 09:35:02;;;;;;;4.47;2.15;;;;;;;12.69;61.76;99230.53;10109488;29;20421;-77
2023/03/23 09:40:05;;;;;;;8.90;2.80;;;;;;;12.77;61.40;99241.31;10105695;29;20523;-77
2023/03/23 09:45:16;;;;;;;5.00;2.28;;;;;;;12.12;62.39;99238.41;10097480;29;20087;-76
2023/03/23 09:50:23;;;;;;;3.95;1.92;;;;;;;12.22;61.19;99252.59;10094049;29;20059;-76
2023/03/23 09:55:28;;;;;;;7.72;1.95;;;;;;;12.49;61.12;99265.00;10101607;29;20150;-76
2023/03/23 10:00:33;;;;;;;4.82;2.15;;;;;;;12.63;61.06;99254.63;10082536;29;20094;-76
2023/03/23 10:05:38;;;;;;;3.92;1.98;;;;;;;12.48;61.14;99241.78;10101087;29;20496;-77
2023/03/23 10:10:49;;;;;;;2.80;1.67;;;;;;;12.14;61.50;99252.56;10094301;29;20052;-77
2023/03/23 10:15:51;;;;;;;6.13;2.70;;;;;;;13.19;59.72;99250.28;10118919;29;20127;-77
2023/03/23 10:20:58;;;;;;;6.40;1.98;;;;;;;13.38;58.01;99238.34;10092492;29;20051;-76
2023/03/23 10:26:05;;;;;;;5.60;2.05;;;;;;;13.94;56.08;99248.16;10111907;29;20609;-77
2023/03/23 10:31:12;;;;;;;6.82;2.50;;;;;;;13.36;57.68;99254.66;10118220;29;20056;-77
2023/03/23 10:36:20;;;;;;;11.77;2.40;;;;;;;13.83;56.32;99259.34;10098089;29;20052;-76
2023/03/23 10:41:22;;;;;;;9.05;2.35;;;;;;;13.67;55.78;99227.00;10107503;29;20046;-76
2023/03/23 10:46:35;;;;;;;5.10;2.00;;;;;;;14.22;55.45;99233.38;10093551;29;20146;-77
2023/03/23 10:51:38;;;;;;;;;;;;;;;14.36;54.78;99260.47;10106297;29;20060;-77
2023/03/23 10:56:42;;;;;;;5.72;1.88;;;;;;;13.19;56.98;99250.28;10097572;29;20540;-77
2023/03/23 11:01:47;;;;;;;2.70;0.80;;;;;;;11.31;62.02;99314.94;10097535;29;20048;-77
2023/03/23 11:06:53;;;;;;;3.25;0.70;;;;;;;8.00;89.85;99332.56;10112545;29;20083;-77
2023/03/23 11:11:56;;;;;;;1.05;0.60;;;;;;;8.22;90.19;99332.38;10113186;29;20047;-77
2023/03/23 11:17:01;;;;;;;4.95;0.60;;;;;;;8.46;89.54;99329.41;10101027;29;20697;-78
2023/03/23 11:22:09;;;;;;;0.75;0.65;;;;;;;8.64;88.48;99363.53;10106038;29;20132;-78
2023/03/23 11:27:12;;;;;;;2.10;0.50;;;;;;;8.44;89.11;99350.06;10102153;29;20127;-77
2023/03/23 11:32:15;;;;;;;2.60;0.60;;;;;;;8.24;89.37;99340.28;10108739;29;20048;-79
2023/03/23 11:37:23;;;;;;;2.88;0.70;;;;;;;8.59;87.39;99337.19;10091984;29;20082;-78
2023/03/23 11:42:29;;;;;;;2.58;0.40;;;;;;;8.44;86.59;99371.47;10108976;29;20076;-77
2023/03/23 11:47:38;;;;;;;1.42;0.65;;;;;;;9.01;87.05;99366.44;10110515;29;20052;-77
2023/03/23 11:52:48;;;;;;;4.18;0.65;;;;;;;9.06;83.56;99367.72;10112889;29;20055;-77
2023/03/23 11:57:49;;;;;;;2.50;0.40;;;;;;;9.14;81.73;99372.38;10100979;29;20075;-77
2023/03/23 12:03:38;;;;;;;1.07;0.47;;;;;;;9.06;82.33;99393.66;10099951;29;20048;-77
2023/03/23 12:08:59;;;;;;;4.57;0.80;;;;;;;8.98;81.74;99385.47;10097650;29;20064;-77
2023/03/23 12:14:13;;;;;;;3.60;1.67;;;;;;;8.90;80.66;99359.38;10105589;29;20048;-78
2023/03/23 12:19:23;;;;;;;2.75;0.88;;;;;;;8.82;80.20;99369.94;10081799;29;20124;-78
2023/03/23 12:24:40;;;;;;;4.63;1.08;;;;;;;8.87;79.52;99365.00;10104799;29;20045;-78
2023/03/23 12:29:54;;;;;;;5.97;1.08;;;;;;;9.02;78.62;99370.81;10103254;29;20089;-77
2023/03/23 12:35:05;;;;;;;4.30;1.00;;;;;;;9.43;77.28;99364.31;10104873;29;20048;-77
2023/03/23 12:40:32;;;;;;;5.63;0.82;;;;;;;9.34;77.88;99367.88;10100818;29;20052;-78
2023/03/23 12:45:52;;;;;;;3.10;1.30;;;;;;;8.68;81.83;99379.19;10090547;29;20131;-78
2023/03/23 12:51:12;;;;;;;2.60;0.60;;;;;;;9.08;80.71;99370.25;10101903;29;20546;-77
2023/03/23 12:56:21;;;;;;;2.75;0.98;;;;;;;9.11;81.21;99355.75;10097792;29;20052;-77
2023/03/23 13:01:27;;;;;;;2.45;0.82;;;;;;;9.46;81.44;99371.25;10092908;29;20059;-77
2023/03/23 13:06:34;;;;;;;2.60;0.77;;;;;;;9.51;81.33;99375.19;10104909;29;20562;-77
2023/03/23 13:11:40;;;;;;;3.60;0.93;;;;;;;9.91;79.30;99376.03;10101003;29;20054;-78
2023/03/23 13:16:50;;;;;;;1.85;0.70;;;;;;;10.01;76.94;99373.31;10099547;29;20044;-78
2023/03/23 13:22:00;;;;;;;1.10;0.60;;;;;;;9.77;79.28;99381.81;10099353;29;20055;-78
2023/03/23 13:27:03;;;;;;;2.75;0.95;;;;;;;9.86;80.62;99368.41;10107478;29;20156;-77
2023/03/23 13:32:11;;;;;;;4.18;1.52;;;;;;;10.33;81.31;99354.13;10097178;29;20123;-78
2023/03/23 13:37:23;;;;;;;1.30;1.10;;;;;;;10.49;81.49;99353.50;10110580;29;20063;-78
2023/03/23 13:42:29;;;;;;;3.15;1.63;;;;;;;11.03;82.16;99357.16;10104970;29;20071;-76
2023/03/23 13:47:38;;;;;;;1.48;1.27;;;;;;;13.56;72.35;99343.38;10110888;29;20146;-79
2023/03/23 13:52:51;;;;;;;1.13;0.80;;;;;;;13.69;70.67;99341.84;10111060;29;20048;-78
2023/03/23 13:57:56;;;;;;;;;;;;;;;11.75;74.20;99341.00;10109623;29;20194;-78
2023/03/23 14:03:02;;;;;;;3.30;2.08;;;;;;;10.88;79.42;99345.22;10114446;29;19970;-78
2023/03/23 14:08:13;;;;;;;3.95;2.00;;;;;;;11.46;77.07;99352.84;10115570;29;20056;-78
2023/03/23 14:13:22;;;;;;;4.75;2.47;;;;;;;11.20;77.74;99342.91;10112464;29;20056;-79
2023/03/23 14:18:27;;;;;;;2.38;2.17;;;;;;;10.77;79.18;99363.22;10107978;29;20052;-78
2023/03/23 14:23:32;;;;;;;3.22;2.42;;;;;;;10.52;78.98;99355.88;10114563;29;21102;-79
2023/03/23 14:28:40;;;;;;;3.80;2.28;;;;;;;10.63;78.87;99374.47;10119164;29;20075;-78
2023/03/23 14:33:42;;;;;;;2.30;2.10;;;;;;;10.49;78.79;99367.75;10111520;29;20061;-79
2023/03/23 14:38:44;;;;;;;3.70;2.60;;;;;;;10.84;77.35;99366.19;10117633;29;20524;-78
2023/03/23 14:43:48;;;;;;;2.92;2.22;;;;;;;10.93;77.40;99365.25;10107191;29;20064;-78
2023/03/23 14:48:50;;;;;;;5.85;3.00;;;;;;;10.75;77.53;99353.63;10102263;29;20052;-78
2023/03/23 14:53:54;;;;;;;5.90;3.10;;;;;;;11.40;75.60;99357.00;10105081;29;20053;-78
2023/03/23 14:59:04;;;;;;;3.10;2.42;;;;;;;11.52;74.70;99363.03;10147387;29;20062;-78
2023/03/23 15:04:11;;;;;;;5.43;2.15;;;;;;;12.03;72.62;99329.06;10139212;29;20052;-78
2023/03/23 15:09:15;;;;;;;3.30;3.00;;;;;;;13.61;70.30;99336.44;10112590;29;20057;-80
2023/03/23 15:14:22;;;;;;;4.43;2.30;;;;;;;13.40;67.50;99352.28;10099543;29;20503;-79
2023/03/23 15:19:27;;;;;;;2.65;2.45;;;;;;;13.91;64.75;99359.19;10109001;29;20044;-79
2023/03/23 15:24:34;;;;;;;4.55;2.72;;;;;;;13.82;66.04;99354.84;10107229;29;20156;-79
2023/03/23 15:29:50;;;;;;;3.88;2.65;;;;;;;12.71;67.95;99365.09;10116294;29;20055;-81
2023/03/23 15:34:53;;;;;;;5.45;3.22;;;;;;;12.06;71.46;99365.56;10117428;29;20143;-79
2023/03/23 15:39:56;;;;;;;4.70;3.05;;;;;;;11.91;71.42;99368.00;10102488;29;20048;-78
2023/03/23 15:45:20;;;;;;;3.63;2.45;;;;;;;11.90;70.83;99334.88;10112440;29;20160;-80
2023/03/23 15:50:35;;;;;;;5.70;3.05;;;;;;;11.50;72.04;99328.19;10107338;29;21202;-79
2023/03/23 15:55:38;;;;;;;8.50;2.63;;;;;;;11.71;71.27;99325.16;10116950;29;20067;-79
2023/03/23 16:00:43;;;;;;;4.15;2.67;;;;;;;11.52;71.93;99313.75;10096799;29;20147;-79
2023/03/23 16:05:46;;;;;;;6.30;2.55;;;;;;;11.93;70.91;99304.97;10110868;29;20196;-78
2023/03/23 16:10:49;;;;;;;6.60;3.10;;;;;;;11.98;70.94;99307.16;10126564;29;20130;-78
2023/03/23 16:15:54;;;;;;;5.63;2.92;;;;;;;11.89;70.79;99308.97;10105445;29;20070;-79
2023/03/23 16:20:57;;;;;;;4.45;2.60;;;;;;;11.83;71.46;99333.81;10123632;29;20048;-79
2023/03/23 16:26:00;;;;;;;6.80;3.10;;;;;;;11.87;71.75;99319.03;10115367;29;20251;-78
2023/03/23 16:31:04;;;;;;;5.82;2.88;;;;;;;11.64;72.26;99323.25;10115651;29;20060;-78
2023/03/23 16:36:10;;;;;;;5.93;3.00;;;;;;;11.81;71.56;99326.91;10122371;29;20059;-78
2023/03/23 16:41:13;;;;;;;5.32;3.15;;;;;;;11.80;72.23;99317.16;10121467;29;20067;-78
2023/03/23 16:46:17;;;;;;;5.15;3.53;;;;;;;11.83;70.57;99300.69;10122201;29;20107;-78
2023/03/23 16:51:20;;;;;;;3.83;2.83;;;;;;;11.70;70.93;99293.03;10118579;29;20081;-78
2023/03/23 16:56:23;;;;;;;4.57;2.80;;;;;;;11.77;71.28;99296.78;10118027;29;20087;-79
2023/03/23 17:01:27;;;;;;;4.82;3.00;;;;;;;11.61;72.29;99329.78;10115522;29;20055;-78
2023/03/23 17:06:30;;;;;;;3.60;3.20;;;;;;;11.56;72.86;99325.88;10120109;29;20516;-78
2023/03/23 17:11:33;;;;;;;5.22;3.35;;;;;;;11.47;73.27;99331.19;10099986;29;21211;-78
2023/03/23 17:16:38;;;;;;;5.20;3.85;;;;;;;11.43;73.82;99328.97;10113183;29;20102;-78
2023/03/23 17:21:42;;;;;;;6.15;3.78;;;;;;;11.65;73.14;99306.94;10120522;29;20158;-78
2023/03/23 17:26:45;;;;;;;5.93;4.10;;;;;;;11.56;73.44;99332.09;10103840;29;20505;-78
2023/03/23 17:31:49;;;;;;;6.00;2.83;;;;;;;11.04;75.10;99334.63;10088417;29;20052;-78
2023/03/23 17:36:52;;;;;;;5.53;3.47;;;;;;;11.41;73.91;99337.22;10112975;29;20047;-77
2023/03/23 17:41:55;;;;;;;4.80;4.18;;;;;;;11.56;73.91;99347.41;10099660;29;21304;-79
2023/03/23 17:46:59;;;;;;;8.23;3.85;;;;;;;11.38;74.58;99361.72;10113037;29;20135;-78
2023/03/23 17:52:02;;;;;;;6.75;3.85;;;;;;;11.01;75.98;99378.78;10103220;29;20048;-78
2023/03/23 17:57:05;;;;;;;5.18;3.47;;;;;;;11.50;74.36;99387.34;10113606;29;20052;-78
2023/03/23 18:02:12;;;;;;;4.38;3.13;;;;;;;11.61;73.78;99372.00;10096929;29;20140;-78
2023/03/23 18:07:22;;;;;;;9.10;4.10;;;;;;;11.78;73.12;99370.28;10096219;29;20068;-78
2023/03/23 18:12:25;;;;;;;8.52;4.22;;;;;;;11.80;73.12;99370.97;10107404;29;20056;-79
2023/03/23 18:17:29;;;;;;;5.32;3.75;;;;;;;11.78;73.40;99372.97;10104932;29;20063;-79
2023/03/23 18:22:32;;;;;;;6.47;4.20;;;;;;;11.65;73.64;99363.44;10119407;29;20093;-78
2023/03/23 18:27:35;;;;;;;9.20;4.75;;;;;;;11.70;73.60;99357.59;10132207;29;20063;-77
2023/03/23 18:32:39;;;;;;;10.68;5.07;;;;;;;11.62;73.37;99361.06;10125531;29;20055;-77
2023/03/23 18:37:42;;;;;;;7.82;4.03;;;;;;;11.53;73.48;99348.56;10128461;29;20528;-77
2023/03/23 18:42:45;;;;;;;5.97;3.67;;;;;;;11.36;73.88;99347.59;10122753;29;20048;-77
2023/03/23 18:47:49;;;;;;;5.15;3.72;;;;;;;11.41;73.45;99344.41;10113850;29;20046;-78
2023/03/23 18:52:55;;;;;;;6.03;3.30;;;;;;;11.45;72.96;99345.81;10129094;29;20055;-77
2023/03/23 18:57:59;;;;;;;4.53;3.38;;;;;;;11.33;73.18;99342.53;10123446;29;20053;-77
2023/03/23 19:03:04;;;;;;;4.65;3.30;;;;;;;11.35;72.99;99335.13;10119823;29;20128;-77
2023/03/23 19:08:08;;;;;;;4.43;3.17;;;;;;;11.44;72.82;99319.94;10127377;29;20060;-76
2023/03/23 19:13:11;;;;;;;4.47;3.42;;;;;;;11.51;72.86;99318.28;10104388;29;20059;-77
2023/03/23 19:18:15;;;;;;;5.45;2.80;;;;;;;11.35;73.31;99319.00;10118284;29;20063;-77
2023/03/23 19:23:18;;;;;;;5.15;3.15;;;;;;;11.38;73.22;99307.94;10115440;29;20895;-77
2023/03/23 19:28:22;;;;;;;9.25;3.10;;;;;;;11.28;73.62;99310.72;10130075;29;20043;-78
2023/03/23 19:33:46;;;;;;;6.78;2.88;;;;;;;11.10;74.18;99296.41;10122726;29;20063;-77
2023/03/23 19:38:49;;;;;;;10.73;3.20;;;;;;;11.05;74.06;99290.63;10129649;29;20048;-78
2023/03/23 19:43:51;;;;;;;8.30;3.38;;;;;;;10.93;74.49;99281.97;10098953;29;20041;-77
2023/03/23 19:48:56;;;;;;;8.15;3.50;;;;;;;10.97;73.88;99266.38;10108677;29;20055;-78
2023/03/23 19:53:59;;;;;;;4.63;2.83;;;;;;;10.97;73.29;99267.25;10121301;29;20809;-77
2023/03/23 19:59:03;;;;;;;6.82;2.70;;;;;;;11.04;72.45;99268.28;10120461;29;20048;-77
2023/03/23 20:04:08;;;;;;;6.47;2.80;;;;;;;10.99;72.03;99267.91;10130647;29;20432;-77
2023/03/23 20:09:11;;;;;;;3.10;2.58;;;;;;;10.99;71.58;99267.06;10125776;29;20088;-78
2023/03/23 20:14:14;;;;;;;3.17;2.33;;;;;;;11.06;71.02;99269.00;10132771;29;20405;-77
2023/03/23 20:19:18;;;;;;;2.80;2.35;;;;;;;11.12;70.35;99266.69;10124077;29;20138;-77
2023/03/23 20:24:21;;;;;;;4.63;2.47;;;;;;;11.05;70.01;99269.13;10127897;29;20144;-77
2023/03/23 20:29:24;;;;;;;6.15;2.70;;;;;;;11.17;69.23;99259.03;10125424;29;20059;-78
2023/03/23 20:34:31;;;;;;;4.00;2.38;;;;;;;11.06;68.90;99247.50;10126799;29;20051;-77
2023/03/23 20:39:35;;;;;;;5.03;2.33;;;;;;;10.91;69.04;99251.72;10113923;29;20064;-77
2023/03/23 20:44:39;;;;;;;3.63;2.30;;;;;;;11.01;68.35;99246.28;10121576;29;20150;-77
2023/03/23 20:49:43;;;;;;;7.18;2.67;;;;;;;11.09;67.88;99250.88;10119823;29;20045;-78
2023/03/23 20:54:56;;;;;;;5.93;2.38;;;;;;;10.98;67.99;99236.69;10130641;29;20063;-78
2023/03/23 20:59:58;;;;;;;3.83;2.60;;;;;;;10.88;68.10;99224.31;10132060;29;20119;-78
2023/03/23 21:05:03;;;;;;;5.00;2.20;;;;;;;10.90;67.53;99228.56;10127371;29;20568;-78
2023/03/23 21:10:07;;;;;;;6.55;2.28;;;;;;;10.94;67.53;99218.31;10116239;29;20128;-77
2023/03/23 21:15:10;;;;;;;5.13;2.22;;;;;;;11.07;66.83;99216.09;10106804;29;20578;-77
2023/03/23 21:20:14;;;;;;;7.38;2.72;;;;;;;10.98;67.10;99206.28;10119647;29;20178;-78
2023/03/23 21:25:20;;;;;;;5.22;3.47;;;;;;;10.96;67.06;99201.06;10125489;29;20054;-78
2023/03/23 21:30:35;;;;;;;5.50;2.35;;;;;;;10.95;67.13;99209.28;10128952;29;20063;-78
2023/03/23 21:35:41;;;;;;;5.72;2.40;;;;;;;11.03;66.65;99195.91;10124482;29;20060;-77
2023/03/23 21:40:44;;;;;;;5.40;2.30;;;;;;;10.94;66.67;99186.97;10127704;29;20063;-77
2023/03/23 21:45:47;;;;;;;7.82;2.60;;;;;;;11.02;66.27;99191.53;10124728;29;20052;-77
2023/03/23 21:50:52;;;;;;;5.22;2.22;;;;;;;11.15;65.95;99193.84;10101508;29;20443;-77
2023/03/23 21:55:54;;;;;;;3.60;1.98;;;;;;;11.15;65.78;99185.78;10130157;29;20052;-78
2023/03/23 22:01:00;;;;;;;4.40;2.47;;;;;;;11.25;65.63;99168.56;10129071;29;20058;-77
2023/03/23 22:06:10;;;;;;;4.72;2.55;;;;;;;11.22;65.46;99158.13;10124258;29;20529;-79
2023/03/23 22:11:15;;;;;;;7.13;2.40;;;;;;;11.33;65.23;99154.31;10165214;29;20416;-76
2023/03/23 22:16:18;;;;;;;4.13;2.45;;;;;;;11.35;65.16;99144.25;10211597;23;20097;-80
2023/03/23 22:21:25;;;;;;;7.05;2.50;;;;;;;11.35;65.07;99130.78;10176196;29;20446;-80
2023/03/23 22:26:30;;;;;;;9.50;2.85;;;;;;;11.43;64.88;99128.16;10153794;29;20116;-80
2023/03/23 22:31:34;;;;;;;5.93;2.42;;;;;;;11.42;64.69;99117.56;10175224;29;20048;-79
2023/03/23 22:36:39;;;;;;;7.68;2.40;;;;;;;11.42;64.75;99099.59;10152778;29;20515;-81
2023/03/23 22:41:42;;;;;;;6.88;2.88;;;;;;;11.54;64.51;99102.00;10171907;29;20067;-80
2023/03/23 22:46:46;;;;;;;7.75;2.60;;;;;;;11.47;64.52;99085.66;10170383;29;20567;-79
2023/03/23 22:51:50;;;;;;;7.32;1.90;;;;;;;11.57;64.19;99070.22;10171486;29;20048;-80
2023/03/23 22:56:53;;;;;;;3.45;1.88;;;;;;;11.58;64.24;99060.34;10172260;29;20044;-80
2023/03/23 23:01:56;;;;;;;7.55;1.80;;;;;;;11.67;63.86;99060.19;10167934;29;20167;-79
2023/03/23 23:07:00;;;;;;;5.22;1.95;;;;;;;11.75;63.55;99056.69;10159969;29;20040;-77
2023/03/23 23:12:15;;;;;;;5.22;1.85;;;;;;;11.78;64.46;99059.03;10170014;29;20080;-80
2023/03/23 23:17:18;;;;;;;3.47;1.88;;;;;;;11.10;67.37;99051.00;10160571;29;20048;-79
2023/03/23 23:22:22;;;;;;;5.30;1.83;;;;;;;11.10;68.92;99054.53;10167255;29;20044;-79
2023/03/23 23:27:25;;;;;;;4.40;1.67;;;;;;;11.13;70.27;99050.72;10181758;29;20052;-79
2023/03/23 23:32:28;;;;;;;6.18;1.95;;;;;;;11.06;71.58;99045.13;10166566;29;20040;-80
2023/03/23 23:37:32;;;;;;;3.08;1.75;;;;;;;10.81;72.53;99042.28;10165575;29;20048;-80
2023/03/23 23:42:35;;;;;;;5.82;1.98;;;;;;;10.69;73.73;99053.44;10168458;29;20088;-79
2023/03/23 23:47:39;;;;;;;7.15;2.47;;;;;;;10.83;74.01;99039.44;10150652;29;20068;-80
2023/03/23 23:52:44;;;;;;;4.07;2.38;;;;;;;10.74;74.87;99035.03;10153214;29;20054;-79